createdAt,value
2018-07-11T00:02:19.314Z,12.90
2018-07-11T00:04:50.019Z,13.67
2018-07-11T00:07:20.644Z,16.07
2018-07-11T00:10:06.877Z,14.30
2018-07-11T00:12:43.403Z,14.40
2018-07-11T00:15:13.944Z,12.43
2018-07-11T00:17:44.375Z,11.27
2018-07-11T00:20:14.992Z,13.13
2018-07-11T00:22:45.983Z,13.93
2018-07-11T00:25:16.691Z,14.70
2018-07-11T00:27:47.291Z,13.83
2018-07-11T00:30:18.152Z,12.63
2018-07-11T00:32:48.678Z,14.37
2018-07-11T00:35:19.309Z,13.37
2018-07-11T00:37:49.913Z,13.97
2018-07-11T00:40:20.628Z,13.83
2018-07-11T00:42:51.688Z,12.87
2018-07-11T00:45:22.334Z,12.67
2018-07-11T00:47:52.994Z,13.50
2018-07-11T00:50:23.483Z,14.57
2018-07-11T00:52:54.334Z,13.40
2018-07-11T00:55:25.173Z,14.37
2018-07-11T00:57:57.864Z,13.87
2018-07-11T01:00:28.392Z,13.60
2018-07-11T01:02:59.334Z,13.87
2018-07-11T01:05:29.939Z,15.27
2018-07-11T01:08:00.413Z,15.37
2018-07-11T01:10:31.026Z,14.23
2018-07-11T01:13:01.714Z,14.37
2018-07-11T01:15:32.195Z,14.47
2018-07-11T01:18:17.113Z,14.63
2018-07-11T01:20:47.674Z,14.13
2018-07-11T01:23:17.986Z,14.40
2018-07-11T01:25:48.588Z,14.93
2018-07-11T01:28:19.024Z,13.37
2018-07-11T01:30:49.871Z,14.63
2018-07-11T01:33:20.330Z,15.53
2018-07-11T01:35:50.937Z,14.53
2018-07-11T01:38:21.309Z,14.70
2018-07-11T01:40:52.072Z,13.47
2018-07-11T01:43:22.540Z,14.20
2018-07-11T01:45:53.113Z,13.63
2018-07-11T01:48:24.330Z,14.00
2018-07-11T01:50:55.074Z,14.70
2018-07-11T01:53:25.663Z,13.57
2018-07-11T01:55:56.591Z,13.70
2018-07-11T01:58:27.467Z,12.27
2018-07-11T02:00:58.414Z,13.47
2018-07-11T02:03:29.214Z,14.37
2018-07-11T02:05:59.851Z,14.27
2018-07-11T02:08:30.675Z,13.40
2018-07-11T02:11:01.456Z,15.67
2018-07-11T02:13:32.188Z,13.77
2018-07-11T02:16:03.161Z,14.27
2018-07-11T02:18:36.198Z,14.43
2018-07-11T02:21:08.082Z,15.23
2018-07-11T02:23:39.360Z,14.87
2018-07-11T02:26:10.248Z,14.97
2018-07-11T02:28:41.248Z,14.63
2018-07-11T02:31:12.080Z,14.63
2018-07-11T02:33:42.887Z,14.37
2018-07-11T02:36:13.404Z,13.47
2018-07-11T02:38:43.924Z,13.80
2018-07-11T02:41:14.803Z,14.77
2018-07-11T02:43:45.469Z,14.00
2018-07-11T02:46:16.244Z,13.33
2018-07-11T02:48:47.044Z,39.17
2018-07-11T02:51:17.749Z,49.57
2018-07-11T02:53:48.424Z,14.93
2018-07-11T02:56:19.915Z,15.97
2018-07-11T02:58:51.933Z,15.47
2018-07-11T03:01:22.419Z,15.03
2018-07-11T03:03:52.841Z,14.47
2018-07-11T03:06:23.318Z,16.07
2018-07-11T03:08:54.557Z,14.67
2018-07-11T03:11:25.313Z,16.07
2018-07-11T03:13:55.664Z,16.30
2018-07-11T03:16:26.146Z,16.43
2018-07-11T03:18:56.528Z,15.40
2018-07-11T03:21:27.076Z,16.40
2018-07-11T03:23:57.701Z,15.77
2018-07-11T03:26:28.154Z,16.47
2018-07-11T03:28:58.576Z,17.33
2018-07-11T03:31:30.253Z,15.30
2018-07-11T03:34:00.708Z,16.90
2018-07-11T03:36:31.323Z,15.30
2018-07-11T03:39:02.032Z,14.67
2018-07-11T03:41:32.910Z,13.47
2018-07-11T03:44:03.796Z,13.70
2018-07-11T03:46:34.490Z,14.53
2018-07-11T03:49:05.415Z,13.03
2018-07-11T03:51:36.087Z,12.57
2018-07-11T03:54:07.439Z,12.63
2018-07-11T03:56:37.976Z,12.90
2018-07-11T03:59:08.386Z,12.37
2018-07-11T04:01:39.025Z,11.70
2018-07-11T04:04:09.569Z,11.93
2018-07-11T04:06:39.953Z,12.60
2018-07-11T04:09:10.972Z,12.77
2018-07-11T04:11:41.674Z,11.53
2018-07-11T04:14:12.337Z,11.93
2018-07-11T04:16:42.765Z,12.23
2018-07-11T04:19:13.294Z,11.73
2018-07-11T04:21:43.659Z,12.20
2018-07-11T04:24:14.318Z,11.83
2018-07-11T04:26:44.921Z,11.50
2018-07-11T04:29:15.516Z,11.77
2018-07-11T04:31:46.215Z,12.03
2018-07-11T04:34:16.814Z,11.97
2018-07-11T04:36:47.744Z,11.77
2018-07-11T04:39:18.514Z,11.60
2018-07-11T04:41:49.141Z,11.53
2018-07-11T04:44:19.766Z,11.13
2018-07-11T04:46:50.688Z,11.87
2018-07-11T04:49:21.359Z,11.20
2018-07-11T04:51:52.671Z,11.30
2018-07-11T04:54:23.492Z,11.00
2018-07-11T04:56:54.349Z,11.83
2018-07-11T04:59:25.136Z,11.33
2018-07-11T05:01:55.812Z,11.53
2018-07-11T05:04:26.557Z,10.87
2018-07-11T05:06:57.054Z,11.33
2018-07-11T05:09:27.764Z,11.60
2018-07-11T05:11:58.297Z,11.27
2018-07-11T05:14:28.891Z,10.73
2018-07-11T05:16:59.414Z,10.07
2018-07-11T05:19:29.813Z,10.60
2018-07-11T05:22:00.425Z,9.80
2018-07-11T05:24:31.085Z,9.70
2018-07-11T05:27:01.577Z,10.33
2018-07-11T05:29:31.984Z,10.70
2018-07-11T05:32:02.517Z,11.63
2018-07-11T05:34:33.864Z,12.67
2018-07-11T05:37:05.270Z,10.27
2018-07-11T05:39:36.155Z,14.10
2018-07-11T05:42:06.671Z,10.57
2018-07-11T05:44:37.367Z,10.20
2018-07-11T05:47:08.405Z,9.73
2018-07-11T05:49:39.023Z,9.73
2018-07-11T05:52:09.485Z,11.23
2018-07-11T05:54:40.184Z,11.87
2018-07-11T05:57:10.596Z,9.73
2018-07-11T05:59:41.183Z,10.17
2018-07-11T06:02:11.740Z,10.13
2018-07-11T06:04:42.342Z,10.20
2018-07-11T06:07:12.818Z,9.90
2018-07-11T06:09:43.198Z,10.07
2018-07-11T06:12:13.578Z,9.80
2018-07-11T06:14:44.083Z,9.87
2018-07-11T06:17:14.653Z,9.47
2018-07-11T06:19:45.301Z,8.93
2018-07-11T06:22:15.764Z,9.30
2018-07-11T06:24:46.317Z,9.33
2018-07-11T06:27:17.156Z,9.80
2018-07-11T06:29:48.205Z,9.67
2018-07-11T06:32:18.646Z,9.90
2018-07-11T06:34:49.142Z,9.83
2018-07-11T06:37:19.576Z,8.53
2018-07-11T06:39:50.044Z,8.77
2018-07-11T06:42:20.582Z,9.10
2018-07-11T06:44:51.346Z,8.30
2018-07-11T06:47:22.189Z,8.93
2018-07-11T06:49:52.972Z,9.00
2018-07-11T06:52:23.365Z,7.93
2018-07-11T06:54:53.797Z,7.90
2018-07-11T06:57:24.410Z,9.63
2018-07-11T06:59:54.889Z,8.33
2018-07-11T07:02:25.351Z,8.50
2018-07-11T07:04:55.698Z,9.20
2018-07-11T07:07:26.405Z,7.63
2018-07-11T07:09:57.141Z,8.87
2018-07-11T07:12:27.811Z,8.13
2018-07-11T07:14:58.140Z,8.57
2018-07-11T07:17:28.564Z,9.10
2018-07-11T07:19:58.972Z,9.00
2018-07-11T07:22:29.426Z,8.73
2018-07-11T07:25:00.217Z,8.73
2018-07-11T07:27:30.723Z,9.23
2018-07-11T07:30:01.244Z,10.67
2018-07-11T07:32:31.861Z,10.60
2018-07-11T07:35:02.405Z,9.80
2018-07-11T07:37:32.833Z,10.60
2018-07-11T07:40:03.510Z,11.20
2018-07-11T07:42:34.026Z,12.23
2018-07-11T07:45:04.903Z,9.97
2018-07-11T07:47:40.351Z,9.93
2018-07-11T07:50:10.909Z,10.73
2018-07-11T07:52:42.229Z,10.43
2018-07-11T07:55:12.918Z,10.37
2018-07-11T07:57:43.901Z,11.10
2018-07-11T08:00:14.572Z,9.80
2018-07-11T08:02:45.964Z,10.43
2018-07-11T08:05:17.135Z,9.93
2018-07-11T08:07:47.759Z,11.07
2018-07-11T08:10:18.202Z,10.20
2018-07-11T08:12:48.686Z,9.80
2018-07-11T08:15:19.241Z,13.60
2018-07-11T08:17:49.645Z,10.30
2018-07-11T08:20:20.503Z,9.70
2018-07-11T08:23:32.046Z,9.57
2018-07-11T08:26:14.155Z,8.93
2018-07-11T08:30:00.054Z,9.20
2018-07-11T08:32:46.136Z,8.13
2018-07-11T08:35:32.590Z,7.50
2018-07-11T08:38:17.260Z,7.70
2018-07-11T08:41:00.939Z,7.53
2018-07-11T08:43:47.215Z,8.17
2018-07-11T08:46:29.946Z,7.27
2018-07-11T08:49:21.974Z,7.10
2018-07-11T08:52:17.181Z,7.17
2018-07-11T08:55:01.344Z,7.03
2018-07-11T08:57:42.949Z,7.47
2018-07-11T09:01:22.884Z,7.97
2018-07-11T09:04:04.479Z,8.00
2018-07-11T09:09:01.212Z,8.37
2018-07-11T09:12:45.275Z,7.77
2018-07-11T09:17:31.061Z,8.20
2018-07-11T09:20:12.547Z,7.10
2018-07-11T09:27:06.327Z,7.23
2018-07-11T09:29:37.025Z,6.97
2018-07-11T09:32:07.744Z,7.33
2018-07-11T09:34:38.073Z,7.37
2018-07-11T09:37:08.651Z,6.90
2018-07-11T09:39:39.264Z,7.23
2018-07-11T09:42:09.960Z,7.53
2018-07-11T09:44:40.633Z,7.60
2018-07-11T09:47:16.359Z,6.80
2018-07-11T09:49:47.228Z,7.20
2018-07-11T09:52:17.881Z,6.97
2018-07-11T09:54:48.527Z,8.10
2018-07-11T09:57:20.194Z,6.90
2018-07-11T09:59:51.165Z,7.53
2018-07-11T10:02:21.880Z,6.37
2018-07-11T10:04:53.278Z,6.07
2018-07-11T10:07:24.801Z,6.30
2018-07-11T10:09:55.568Z,6.70
2018-07-11T10:12:26.010Z,5.97
2018-07-11T10:14:56.932Z,5.93
2018-07-11T10:17:27.867Z,6.63
2018-07-11T10:19:58.384Z,6.20
2018-07-11T10:22:29.202Z,5.80
2018-07-11T10:25:00.095Z,6.27
2018-07-11T10:27:30.839Z,6.03
2018-07-11T10:30:01.540Z,6.20
2018-07-11T10:32:32.565Z,5.57
2018-07-11T10:35:03.335Z,5.77
2018-07-11T10:37:34.161Z,5.57
2018-07-11T10:40:04.846Z,6.13
2018-07-11T10:42:35.504Z,5.80
2018-07-11T10:45:06.718Z,6.77
2018-07-11T10:47:37.588Z,5.70
2018-07-11T10:50:08.382Z,5.63
2018-07-11T10:52:40.027Z,5.87
2018-07-11T10:55:10.640Z,5.60
2018-07-11T10:57:41.445Z,9.60
2018-07-11T11:00:12.050Z,6.57
2018-07-11T11:02:42.488Z,5.73
2018-07-11T11:05:13.139Z,5.90
2018-07-11T11:07:43.776Z,6.40
2018-07-11T11:10:14.226Z,9.53
2018-07-11T11:12:45.272Z,5.00
2018-07-11T11:15:15.872Z,6.27
2018-07-11T11:17:47.505Z,5.17
2018-07-11T11:20:18.116Z,5.20
2018-07-11T11:22:48.713Z,5.20
2018-07-11T11:25:20.096Z,5.10
2018-07-11T11:27:50.593Z,4.93
2018-07-11T11:30:21.412Z,5.37
2018-07-11T11:32:52.011Z,5.70
2018-07-11T11:35:22.842Z,5.13
2018-07-11T11:37:53.581Z,5.50
2018-07-11T11:40:25.129Z,5.47
2018-07-11T11:42:55.784Z,5.53
2018-07-11T11:45:26.520Z,5.53
2018-07-11T11:47:59.199Z,5.63
2018-07-11T11:50:30.324Z,6.40
2018-07-11T11:53:01.556Z,5.27
2018-07-11T11:55:31.944Z,5.23
2018-07-11T11:58:02.591Z,5.20
2018-07-11T12:00:32.994Z,5.20
2018-07-11T12:03:03.469Z,5.20
2018-07-11T12:05:33.994Z,4.80
2018-07-11T12:08:04.621Z,4.87
2018-07-11T12:10:35.149Z,4.77
2018-07-11T12:13:06.152Z,5.20
2018-07-11T12:15:36.830Z,5.50
2018-07-11T12:18:07.453Z,6.30
2018-07-11T12:20:38.058Z,6.10
2018-07-11T12:23:08.682Z,6.00
2018-07-11T12:25:48.972Z,5.43
2018-07-11T12:28:19.689Z,6.47
2018-07-11T12:30:50.234Z,5.27
2018-07-11T12:33:21.901Z,5.47
2018-07-11T12:35:52.467Z,5.23
2018-07-11T12:38:23.047Z,5.30
2018-07-11T12:40:53.967Z,5.80
2018-07-11T12:43:24.918Z,6.30
2018-07-11T12:45:56.440Z,4.97
2018-07-11T12:48:31.842Z,5.30
2018-07-11T12:51:02.628Z,5.93
2018-07-11T12:53:33.454Z,5.13
2018-07-11T12:56:04.071Z,5.77
2018-07-11T12:58:34.656Z,5.60
2018-07-11T13:01:05.295Z,5.97
2018-07-11T13:03:36.012Z,5.50
2018-07-11T13:06:07.458Z,6.00
2018-07-11T13:08:40.651Z,5.90
2018-07-11T13:11:11.136Z,5.00
2018-07-11T13:13:41.722Z,5.87
2018-07-11T13:16:12.349Z,5.67
2018-07-11T13:18:43.366Z,5.00
2018-07-11T13:21:14.118Z,4.90
2018-07-11T13:23:44.724Z,5.30
2018-07-11T13:26:15.433Z,5.27
2018-07-11T13:28:46.201Z,5.80
2018-07-11T13:31:18.871Z,5.90
2018-07-11T13:33:49.651Z,5.73
2018-07-11T13:36:20.456Z,5.20
2018-07-11T13:38:51.375Z,5.70
2018-07-11T13:41:22.934Z,5.23
2018-07-11T13:43:54.338Z,5.77
2018-07-11T13:46:25.013Z,5.43
2018-07-11T13:48:55.551Z,5.30
2018-07-11T13:51:26.179Z,6.63
2018-07-11T13:53:57.115Z,6.70
2018-07-11T13:56:27.656Z,5.40
2018-07-11T13:58:58.573Z,6.00
2018-07-11T14:01:29.352Z,5.40
2018-07-11T14:03:59.948Z,6.10
2018-07-11T14:06:30.729Z,6.00
2018-07-11T14:09:01.700Z,7.50
2018-07-11T14:11:32.507Z,8.20
2018-07-11T14:14:03.180Z,5.73
2018-07-11T14:16:34.774Z,5.73
2018-07-11T14:19:05.524Z,5.33
2018-07-11T14:21:35.913Z,5.50
2018-07-11T14:24:06.485Z,5.47
2018-07-11T14:26:37.291Z,5.93
2018-07-11T14:29:08.051Z,5.27
2018-07-11T14:31:38.857Z,5.70
2018-07-11T14:34:10.108Z,5.80
2018-07-11T14:36:40.607Z,5.63
2018-07-11T14:39:11.519Z,5.43
2018-07-11T14:41:41.978Z,12.57
2018-07-11T14:44:12.672Z,6.63
2018-07-11T14:46:43.565Z,6.17
2018-07-11T14:49:16.260Z,5.10
2018-07-11T14:51:46.945Z,5.40
2018-07-11T14:54:17.662Z,4.00
2018-07-11T14:56:48.800Z,4.70
2018-07-11T14:59:19.385Z,5.00
2018-07-11T15:01:50.108Z,5.60
2018-07-11T15:04:20.580Z,5.03
2018-07-11T15:06:51.423Z,5.27
2018-07-11T15:09:22.304Z,5.10
2018-07-11T15:11:52.955Z,5.43
2018-07-11T15:14:23.472Z,4.83
2018-07-11T15:16:54.032Z,5.43
2018-07-11T15:19:24.469Z,5.50
2018-07-11T15:21:54.978Z,4.63
2018-07-11T15:24:25.786Z,4.90
2018-07-11T15:26:57.067Z,5.17
2018-07-11T15:29:27.826Z,4.57
2018-07-11T15:32:01.158Z,5.40
2018-07-11T15:34:31.896Z,5.23
2018-07-11T15:37:02.557Z,4.90
2018-07-11T15:39:33.166Z,5.20
2018-07-11T15:42:06.210Z,5.00
2018-07-11T15:44:36.760Z,4.87
2018-07-11T15:47:08.095Z,4.87
2018-07-11T15:49:39.906Z,5.03
2018-07-11T15:52:11.410Z,5.07
2018-07-11T15:54:42.159Z,6.20
2018-07-11T15:57:13.915Z,5.47
2018-07-11T15:59:55.638Z,4.90
2018-07-11T16:02:26.554Z,4.27
2018-07-11T16:04:57.255Z,4.77
2018-07-11T16:07:30.289Z,4.47
2018-07-11T16:10:00.993Z,4.40
2018-07-11T16:12:31.674Z,4.77
2018-07-11T16:15:02.481Z,4.80
2018-07-11T16:17:33.036Z,5.10
2018-07-11T16:20:03.864Z,4.77
2018-07-11T16:22:34.775Z,4.97
2018-07-11T16:25:05.698Z,5.17
2018-07-11T16:27:36.540Z,4.80
2018-07-11T16:30:07.384Z,5.97
2018-07-11T16:32:37.980Z,4.90
2018-07-11T16:35:08.540Z,4.93
2018-07-11T16:37:39.048Z,4.50
2018-07-11T16:40:10.167Z,4.87
2018-07-11T16:42:40.961Z,4.90
2018-07-11T16:45:11.820Z,5.53
2018-07-11T16:47:42.629Z,4.43
2018-07-11T16:50:13.204Z,4.90
2018-07-11T16:52:43.904Z,4.17
2018-07-11T16:55:14.567Z,4.83
2018-07-11T16:57:47.691Z,4.93
2018-07-11T17:00:22.173Z,5.03
2018-07-11T17:03:07.804Z,5.87
2018-07-11T17:05:50.468Z,4.90
2018-07-11T17:08:30.508Z,4.53
2018-07-11T17:11:38.120Z,5.10
2018-07-11T17:14:08.876Z,5.60
2018-07-11T17:16:47.296Z,5.40
2018-07-11T17:19:29.895Z,5.03
2018-07-11T17:22:04.459Z,5.40
2018-07-11T17:24:39.817Z,5.47
2018-07-11T17:27:10.386Z,6.20
2018-07-11T17:29:42.796Z,9.93
2018-07-11T17:32:14.263Z,6.33
2018-07-11T17:34:44.925Z,5.90
2018-07-11T17:37:17.569Z,6.70
2018-07-11T17:39:54.332Z,6.70
2018-07-11T17:42:27.765Z,5.93
2018-07-11T17:45:11.805Z,6.10
2018-07-11T17:49:00.112Z,6.83
2018-07-11T17:52:15.242Z,6.53
2018-07-11T17:54:58.194Z,6.60
2018-07-11T17:58:35.963Z,6.70
2018-07-11T18:01:08.034Z,6.90
2018-07-11T18:03:44.870Z,7.13
2018-07-11T18:06:36.522Z,7.47
2018-07-11T18:09:10.208Z,6.87
2018-07-11T18:12:00.014Z,6.30
2018-07-11T18:15:04.069Z,8.43
2018-07-11T18:17:44.422Z,6.30
2018-07-11T18:22:47.536Z,7.30
2018-07-11T18:27:36.254Z,6.83
2018-07-11T18:30:27.672Z,7.00
2018-07-11T18:33:16.821Z,14.00
2018-07-11T18:35:53.823Z,13.30
2018-07-11T18:38:56.436Z,6.60
2018-07-11T18:41:39.162Z,6.70
2018-07-11T18:44:56.382Z,7.33
2018-07-11T18:47:46.802Z,6.53
2018-07-11T18:50:28.166Z,7.03
2018-07-11T18:53:04.621Z,10.97
2018-07-11T18:55:54.259Z,6.10
2018-07-11T18:58:37.504Z,6.80
2018-07-11T19:01:14.176Z,6.40
2018-07-11T19:04:22.093Z,8.27
2018-07-11T19:08:19.514Z,6.60
2018-07-11T19:10:57.532Z,9.00
2018-07-11T19:13:34.746Z,6.93
2018-07-11T19:16:19.796Z,10.63
2018-07-11T19:19:01.674Z,9.03
2018-07-11T19:22:08.756Z,8.47
2018-07-11T19:24:52.903Z,7.77
2018-07-11T19:27:49.149Z,7.40
2018-07-11T19:30:35.340Z,7.60
2018-07-11T19:34:20.098Z,6.87
2018-07-11T19:37:02.576Z,6.97
2018-07-11T19:41:51.747Z,7.23
2018-07-11T19:44:31.841Z,9.17
2018-07-11T19:47:13.221Z,8.90
2018-07-11T19:49:55.526Z,10.53
2018-07-11T19:52:36.703Z,15.80
2018-07-11T19:55:15.424Z,8.87
2018-07-11T19:57:46.083Z,9.57
2018-07-11T20:00:16.684Z,8.97
2018-07-11T20:02:47.302Z,9.10
2018-07-11T20:05:18.259Z,7.90
2018-07-11T20:07:48.962Z,9.43
2018-07-11T20:10:19.681Z,9.67
2018-07-11T20:12:51.124Z,8.63
2018-07-11T20:15:21.812Z,8.20
2018-07-11T20:17:52.472Z,9.97
2018-07-11T20:20:23.339Z,12.83
2018-07-11T20:22:53.828Z,12.60
2018-07-11T20:25:24.757Z,9.00
2018-07-11T20:27:55.307Z,9.63
2018-07-11T20:30:25.963Z,10.73
2018-07-11T20:32:56.484Z,30.97
2018-07-11T20:35:26.949Z,18.10
2018-07-11T20:37:57.877Z,12.23
2018-07-11T20:40:28.632Z,29.40
2018-07-11T20:42:59.339Z,18.87
2018-07-11T20:45:30.053Z,27.80
2018-07-11T20:48:00.746Z,12.83
2018-07-11T20:50:31.588Z,12.30
2018-07-11T20:53:02.385Z,14.27
2018-07-11T20:55:33.280Z,11.17
2018-07-11T20:59:13.584Z,14.50
2018-07-11T21:01:54.351Z,12.07
2018-07-11T21:06:38.345Z,10.17
2018-07-11T21:11:37.632Z,11.57
2018-07-11T21:15:27.707Z,9.43
2018-07-11T21:18:12.621Z,10.17
2018-07-11T21:20:43.172Z,16.03
2018-07-11T21:23:13.658Z,25.87
2018-07-11T21:25:44.927Z,15.17
2018-07-11T21:28:15.345Z,12.13
2018-07-11T21:30:45.777Z,9.77
2018-07-11T21:33:16.230Z,11.17
2018-07-11T21:35:46.522Z,9.10
2018-07-11T21:38:17.221Z,8.63
2018-07-11T21:40:47.597Z,8.60
2018-07-11T21:43:18.366Z,10.80
2018-07-11T21:45:51.311Z,21.67
2018-07-11T21:48:22.001Z,10.47
2018-07-11T21:50:52.538Z,9.73
2018-07-11T21:53:23.111Z,10.77
2018-07-11T21:55:53.426Z,12.00
2018-07-11T21:58:24.039Z,16.03
2018-07-11T22:00:56.727Z,9.63
2018-07-11T22:03:27.331Z,10.63
2018-07-11T22:05:58.144Z,8.97
2018-07-11T22:08:29.341Z,11.87
2018-07-11T22:11:00.195Z,11.13
2018-07-11T22:13:30.720Z,10.97
2018-07-11T22:16:01.282Z,11.47
2018-07-11T22:18:33.674Z,11.27
2018-07-11T22:21:03.262Z,10.17
2018-07-11T22:23:31.736Z,9.53
2018-07-11T22:26:00.220Z,9.50
2018-07-11T22:28:29.428Z,9.63
2018-07-11T22:30:58.104Z,10.10
2018-07-11T22:33:26.824Z,10.60
2018-07-11T22:35:55.515Z,15.07
2018-07-11T22:38:24.051Z,9.60
2018-07-11T22:40:53.982Z,10.37
2018-07-11T22:43:22.502Z,11.10
2018-07-11T22:45:51.046Z,10.13
2018-07-11T22:48:19.464Z,11.00
2018-07-11T22:50:47.988Z,10.83
2018-07-11T22:53:16.683Z,10.10
2018-07-11T22:55:45.361Z,13.23
2018-07-11T22:58:13.773Z,10.30
2018-07-11T23:00:42.220Z,13.60
2018-07-11T23:03:11.286Z,9.47
2018-07-11T23:05:39.697Z,9.50
2018-07-11T23:08:08.327Z,8.43
2018-07-11T23:10:36.946Z,10.40
2018-07-11T23:13:06.262Z,9.97
2018-07-11T23:15:34.840Z,8.33
2018-07-11T23:18:03.528Z,8.70
2018-07-11T23:20:32.263Z,10.20
2018-07-11T23:23:00.726Z,10.17
2018-07-11T23:25:29.306Z,10.30
2018-07-11T23:27:57.648Z,9.07
2018-07-11T23:30:26.189Z,9.83
2018-07-11T23:32:54.816Z,9.90
2018-07-11T23:35:23.400Z,9.77
2018-07-11T23:37:52.187Z,9.03
2018-07-11T23:40:20.871Z,9.67
2018-07-11T23:42:49.466Z,10.07
2018-07-11T23:45:17.934Z,10.17
2018-07-11T23:47:46.719Z,9.03
2018-07-11T23:50:15.308Z,10.00
2018-07-11T23:52:43.888Z,9.10
2018-07-11T23:55:12.593Z,8.93
2018-07-11T23:57:41.260Z,9.63
